createdAt,value
2023-04-18T00:01:21.482Z,9.77
2023-04-18T00:03:52.123Z,9.67
2023-04-18T00:06:22.290Z,9.69
2023-04-18T00:08:50.486Z,9.66
2023-04-18T00:11:18.700Z,9.66
2023-04-18T00:13:47.568Z,9.79
2023-04-18T00:16:17.804Z,9.87
2023-04-18T00:18:48.255Z,9.79
2023-04-18T00:21:17.524Z,9.74
2023-04-18T00:23:46.158Z,9.68
2023-04-18T00:26:14.752Z,9.69
2023-04-18T00:28:42.704Z,9.68
2023-04-18T00:31:13.911Z,9.68
2023-04-18T00:33:42.012Z,9.67
2023-04-18T00:36:11.524Z,9.57
2023-04-18T00:38:39.911Z,9.67
2023-04-18T00:41:08.015Z,9.74
2023-04-18T00:43:37.233Z,9.90
2023-04-18T00:46:05.439Z,9.79
2023-04-18T00:48:33.562Z,9.71
2023-04-18T00:51:02.045Z,9.69
2023-04-18T00:53:32.007Z,9.68
2023-04-18T00:56:00.192Z,9.56
2023-04-18T00:58:28.679Z,9.65
2023-04-18T01:00:56.944Z,9.75
2023-04-18T01:03:25.825Z,9.71
2023-04-18T01:05:55.271Z,9.76
2023-04-18T01:08:23.487Z,9.70
2023-04-18T01:10:53.315Z,9.63
2023-04-18T01:13:22.346Z,9.58
2023-04-18T01:15:52.136Z,9.70
2023-04-18T01:18:20.869Z,9.78
2023-04-18T01:20:50.410Z,9.80
2023-04-18T01:23:20.558Z,9.87
2023-04-18T01:25:50.518Z,9.92
2023-04-18T01:28:19.498Z,9.99
2023-04-18T01:30:47.553Z,9.96
2023-04-18T01:33:15.662Z,10.00
2023-04-18T01:35:43.850Z,9.93
2023-04-18T01:38:11.996Z,9.87
2023-04-18T01:40:40.150Z,9.95
2023-04-18T01:43:09.743Z,9.91
2023-04-18T01:45:37.788Z,9.81
2023-04-18T01:48:06.157Z,9.82
2023-04-18T01:50:34.298Z,9.69
2023-04-18T01:53:02.384Z,9.79
2023-04-18T01:55:30.616Z,9.75
2023-04-18T01:57:58.708Z,9.66
2023-04-18T02:00:28.490Z,9.69
2023-04-18T02:02:56.788Z,9.87
2023-04-18T02:05:27.390Z,9.76
2023-04-18T02:07:55.496Z,9.86
2023-04-18T02:10:23.888Z,9.90
2023-04-18T02:12:52.104Z,9.83
2023-04-18T02:15:20.984Z,9.89
2023-04-18T02:17:50.584Z,9.76
2023-04-18T02:20:18.787Z,9.69
2023-04-18T02:22:48.251Z,9.66
2023-04-18T02:25:16.288Z,9.78
2023-04-18T02:27:44.444Z,9.79
2023-04-18T02:30:13.026Z,9.63
2023-04-18T02:32:41.200Z,9.62
2023-04-18T02:35:11.611Z,9.51
2023-04-18T02:37:39.763Z,9.49
2023-04-18T02:40:09.288Z,9.56
2023-04-18T02:42:37.403Z,9.52
2023-04-18T02:45:06.298Z,9.37
2023-04-18T02:47:46.929Z,9.22
2023-04-18T02:50:21.117Z,9.22
2023-04-18T02:52:49.176Z,9.10
2023-04-18T02:55:17.652Z,9.14
2023-04-18T02:57:46.453Z,9.20
2023-04-18T03:00:16.248Z,9.22
2023-04-18T03:02:44.720Z,9.25
2023-04-18T03:05:13.079Z,9.42
2023-04-18T03:07:42.525Z,9.32
2023-04-18T03:10:11.368Z,9.16
2023-04-18T03:12:39.510Z,9.09
2023-04-18T03:15:08.940Z,9.24
2023-04-18T03:17:37.337Z,9.28
2023-04-18T03:20:06.269Z,9.20
2023-04-18T03:22:34.404Z,9.23
2023-04-18T03:25:03.936Z,9.16
2023-04-18T03:27:31.993Z,9.30
2023-04-18T03:30:00.114Z,9.25
2023-04-18T03:32:28.448Z,9.30
2023-04-18T03:35:00.212Z,9.29
2023-04-18T03:37:28.668Z,9.05
2023-04-18T03:39:57.264Z,9.16
2023-04-18T03:42:26.807Z,9.24
2023-04-18T03:44:54.848Z,9.37
2023-04-18T03:47:22.994Z,9.48
2023-04-18T03:49:51.245Z,9.50
2023-04-18T03:52:20.270Z,9.50
2023-04-18T03:54:48.622Z,9.49
2023-04-18T03:57:16.727Z,9.33
2023-04-18T03:59:47.921Z,9.36
2023-04-18T04:02:16.206Z,9.27
2023-04-18T04:04:44.404Z,9.09
2023-04-18T04:07:13.495Z,8.96
2023-04-18T04:09:41.614Z,8.92
2023-04-18T04:12:09.710Z,9.10
2023-04-18T04:14:37.944Z,9.24
2023-04-18T04:17:07.640Z,9.26
2023-04-18T04:19:36.156Z,9.18
2023-04-18T04:22:04.398Z,9.12
2023-04-18T04:24:33.350Z,9.29
2023-04-18T04:27:02.610Z,9.25
2023-04-18T04:29:30.878Z,9.23
2023-04-18T04:31:59.702Z,9.33
2023-04-18T04:34:29.204Z,9.40
2023-04-18T04:36:57.274Z,9.50
2023-04-18T04:39:26.217Z,9.58
2023-04-18T04:41:54.671Z,9.60
2023-04-18T04:44:27.001Z,9.66
2023-04-18T04:46:56.586Z,9.54
2023-04-18T04:49:24.665Z,9.65
2023-04-18T04:51:54.805Z,9.76
2023-04-18T04:54:23.677Z,9.69
2023-04-18T04:56:51.785Z,9.71
2023-04-18T04:59:20.038Z,9.74
2023-04-18T05:01:48.330Z,9.78
2023-04-18T05:04:17.340Z,9.86
2023-04-18T05:06:46.856Z,9.98
2023-04-18T05:09:33.940Z,9.89
2023-04-18T05:12:02.065Z,9.77
2023-04-18T05:14:31.231Z,9.80
2023-04-18T05:16:59.394Z,9.68
2023-04-18T05:19:27.578Z,9.56
2023-04-18T05:21:56.044Z,9.79
2023-04-18T05:24:25.646Z,9.65
2023-04-18T05:26:54.900Z,9.70
2023-04-18T05:29:22.904Z,9.76
2023-04-18T05:31:50.867Z,9.80
2023-04-18T05:34:19.058Z,9.77
2023-04-18T05:36:47.786Z,9.78
2023-04-18T05:39:16.256Z,9.81
2023-04-18T05:41:45.717Z,9.82
2023-04-18T05:44:13.818Z,9.90
2023-04-18T05:46:41.922Z,9.88
2023-04-18T05:49:10.204Z,9.78
2023-04-18T05:51:38.529Z,9.97
2023-04-18T05:54:06.776Z,10.08
2023-04-18T05:56:34.837Z,10.11
2023-04-18T05:59:04.324Z,10.14
2023-04-18T06:01:32.634Z,10.16
2023-04-18T06:04:01.929Z,10.35
2023-04-18T06:06:30.305Z,10.51
2023-04-18T06:08:58.756Z,10.66
2023-04-18T06:11:27.341Z,10.78
2023-04-18T06:13:56.892Z,10.92
2023-04-18T06:16:26.629Z,11.10
2023-04-18T06:18:56.192Z,11.13
2023-04-18T06:21:24.317Z,11.12
2023-04-18T06:23:52.460Z,11.28
2023-04-18T06:26:21.083Z,11.33
2023-04-18T06:28:49.295Z,11.36
2023-04-18T06:31:18.011Z,11.53
2023-04-18T06:33:47.739Z,10.90
2023-04-18T06:36:16.382Z,11.24
2023-04-18T06:38:44.404Z,10.91
2023-04-18T06:41:12.521Z,11.03
2023-04-18T06:43:49.177Z,11.15
2023-04-18T06:46:27.997Z,11.10
2023-04-18T06:48:58.370Z,10.82
2023-04-18T06:51:27.047Z,10.67
2023-04-18T06:53:55.246Z,10.68
2023-04-18T06:56:23.723Z,10.68
2023-04-18T06:58:53.232Z,10.76
2023-04-18T07:01:21.530Z,11.30
2023-04-18T07:03:51.023Z,11.57
2023-04-18T07:06:21.575Z,11.84
2023-04-18T07:08:49.699Z,12.18
2023-04-18T07:11:18.612Z,12.50
2023-04-18T07:13:47.539Z,12.47
2023-04-18T07:16:16.158Z,12.68
2023-04-18T07:18:44.179Z,12.80
2023-04-18T07:21:13.126Z,12.70
2023-04-18T07:23:42.869Z,12.42
2023-04-18T07:26:13.394Z,12.69
2023-04-18T07:28:41.521Z,13.07
2023-04-18T07:31:11.685Z,13.23
2023-04-18T07:33:40.335Z,13.59
2023-04-18T07:36:09.190Z,13.92
2023-04-18T07:38:37.818Z,14.02
2023-04-18T07:41:07.367Z,13.95
2023-04-18T07:43:35.674Z,13.91
2023-04-18T07:46:03.995Z,13.92
2023-04-18T07:48:32.229Z,14.08
2023-04-18T07:51:00.432Z,14.05
2023-04-18T07:53:28.523Z,13.59
2023-04-18T07:55:56.814Z,13.24
2023-04-18T07:58:27.225Z,13.28
2023-04-18T08:00:55.715Z,13.16
2023-04-18T08:03:24.224Z,13.56
2023-04-18T08:05:52.799Z,13.58
2023-04-18T08:08:21.583Z,13.61
2023-04-18T08:10:49.738Z,13.62
2023-04-18T08:13:18.442Z,13.61
2023-04-18T08:15:48.334Z,13.91
2023-04-18T08:18:16.429Z,14.04
2023-04-18T08:20:44.533Z,14.25
2023-04-18T08:23:13.339Z,14.31
2023-04-18T08:25:41.807Z,14.33
2023-04-18T08:28:11.142Z,14.32
2023-04-18T08:30:39.236Z,14.12
2023-04-18T08:33:08.862Z,14.16
2023-04-18T08:35:37.071Z,14.19
2023-04-18T08:38:05.325Z,14.00
2023-04-18T08:40:33.507Z,13.87
2023-04-18T08:43:04.958Z,13.71
2023-04-18T08:45:33.551Z,13.35
2023-04-18T08:48:03.684Z,13.32
2023-04-18T08:50:33.909Z,13.35
2023-04-18T08:53:02.395Z,13.47
2023-04-18T08:55:30.546Z,13.51
2023-04-18T08:57:59.774Z,13.31
2023-04-18T09:00:29.372Z,13.15
2023-04-18T09:02:58.373Z,13.00
2023-04-18T09:05:27.956Z,12.91
2023-04-18T09:07:58.036Z,12.92
2023-04-18T09:10:28.815Z,12.94
2023-04-18T09:12:58.040Z,12.92
2023-04-18T09:15:28.721Z,12.94
2023-04-18T09:17:58.734Z,12.88
2023-04-18T09:20:40.224Z,12.86
2023-04-18T09:23:11.472Z,12.56
2023-04-18T09:25:46.852Z,12.17
2023-04-18T09:28:27.117Z,11.87
2023-04-18T09:30:57.181Z,11.65
2023-04-18T09:33:32.765Z,11.33
2023-04-18T09:36:19.872Z,11.26
2023-04-18T09:38:50.048Z,11.19
2023-04-18T09:41:20.851Z,11.20
2023-04-18T09:43:49.774Z,11.25
2023-04-18T09:46:18.742Z,11.35
2023-04-18T09:48:47.245Z,11.55
2023-04-18T09:51:17.268Z,11.55
2023-04-18T09:53:47.905Z,11.50
2023-04-18T09:56:26.436Z,11.46
2023-04-18T09:58:58.695Z,11.49
2023-04-18T10:01:29.526Z,11.26
2023-04-18T10:03:59.054Z,11.06
2023-04-18T10:06:28.694Z,11.04
2023-04-18T10:08:58.553Z,11.08
2023-04-18T10:11:28.478Z,11.07
2023-04-18T10:13:59.813Z,10.90
2023-04-18T10:16:28.859Z,10.71
2023-04-18T10:18:58.475Z,10.92
2023-04-18T10:21:29.811Z,10.87
2023-04-18T10:23:58.030Z,10.75
2023-04-18T10:26:50.241Z,10.54
2023-04-18T10:29:18.860Z,10.56
2023-04-18T10:31:48.570Z,10.61
2023-04-18T10:34:19.833Z,10.61
2023-04-18T10:37:06.414Z,10.82
2023-04-18T10:39:49.737Z,11.17
2023-04-18T10:42:19.257Z,11.43
2023-04-18T10:45:22.872Z,11.34
2023-04-18T10:47:51.366Z,11.31
2023-04-18T10:50:19.555Z,11.35
2023-04-18T10:52:47.875Z,11.53
2023-04-18T10:55:22.160Z,11.51
2023-04-18T10:57:51.920Z,11.51
2023-04-18T11:00:21.907Z,11.58
2023-04-18T11:02:52.787Z,11.77
2023-04-18T11:05:23.036Z,11.94
2023-04-18T11:07:51.689Z,12.20
2023-04-18T11:10:21.146Z,12.42
2023-04-18T11:12:52.697Z,12.49
2023-04-18T11:15:22.723Z,12.58
2023-04-18T11:17:59.770Z,12.40
2023-04-18T11:20:38.853Z,12.32
2023-04-18T11:23:17.273Z,12.44
2023-04-18T11:25:47.166Z,12.34
2023-04-18T11:28:20.610Z,12.31
2023-04-18T11:30:49.629Z,12.12
2023-04-18T11:33:17.860Z,12.08
2023-04-18T11:35:47.483Z,12.12
2023-04-18T11:38:16.902Z,12.18
2023-04-18T11:40:48.995Z,12.20
2023-04-18T11:43:23.106Z,12.44
2023-04-18T11:45:56.321Z,12.43
2023-04-18T11:48:24.841Z,12.49
2023-04-18T11:50:52.992Z,12.43
2023-04-18T11:53:34.256Z,12.46
2023-04-18T11:56:03.738Z,12.36
2023-04-18T11:58:34.428Z,12.48
2023-04-18T12:01:17.134Z,12.36
2023-04-18T12:03:46.287Z,12.58
2023-04-18T12:06:15.850Z,12.47
2023-04-18T12:08:45.366Z,12.48
2023-04-18T12:11:21.715Z,12.51
2023-04-18T12:13:52.012Z,12.50
2023-04-18T12:16:20.441Z,12.52
2023-04-18T12:18:49.472Z,12.40
2023-04-18T12:21:18.798Z,12.24
2023-04-18T12:23:48.382Z,12.14
2023-04-18T12:26:18.965Z,12.03
2023-04-18T12:28:48.178Z,12.09
2023-04-18T12:31:17.722Z,12.02
2023-04-18T12:33:45.925Z,12.03
2023-04-18T12:36:14.009Z,12.14
2023-04-18T12:38:42.112Z,11.97
2023-04-18T12:41:10.185Z,11.87
2023-04-18T12:43:39.669Z,11.98
2023-04-18T12:46:07.815Z,12.04
2023-04-18T12:48:37.308Z,11.98
2023-04-18T12:51:07.077Z,12.02
2023-04-18T12:53:35.805Z,11.93
2023-04-18T12:56:03.757Z,11.92
2023-04-18T12:58:32.072Z,11.86
2023-04-18T13:01:01.173Z,11.74
2023-04-18T13:03:29.430Z,11.70
2023-04-18T13:06:00.306Z,11.68
2023-04-18T13:08:28.406Z,11.63
2023-04-18T13:10:57.384Z,11.48
2023-04-18T13:13:25.562Z,11.57
2023-04-18T13:15:55.946Z,11.66
2023-04-18T13:18:24.094Z,11.74
2023-04-18T13:20:52.592Z,11.75
2023-04-18T13:23:22.328Z,11.74
2023-04-18T13:25:50.731Z,11.64
2023-04-18T13:28:20.975Z,11.65
2023-04-18T13:30:49.165Z,11.58
2023-04-18T13:33:18.717Z,11.54
2023-04-18T13:35:46.829Z,11.52
2023-04-18T13:38:15.059Z,11.56
2023-04-18T13:40:44.547Z,11.45
2023-04-18T13:43:13.148Z,11.39
2023-04-18T13:45:41.380Z,11.26
2023-04-18T13:48:09.695Z,11.13
2023-04-18T13:50:37.967Z,10.92
2023-04-18T13:53:06.209Z,11.12
2023-04-18T13:55:34.296Z,11.17
2023-04-18T13:58:03.744Z,11.17
2023-04-18T14:00:31.853Z,10.93
2023-04-18T14:03:00.161Z,10.80
2023-04-18T14:05:28.689Z,10.78
2023-04-18T14:08:02.486Z,10.73
2023-04-18T14:10:31.856Z,10.68
2023-04-18T14:13:00.064Z,10.80
2023-04-18T14:15:30.287Z,11.04
2023-04-18T14:17:59.392Z,11.04
2023-04-18T14:20:34.279Z,10.94
2023-04-18T14:23:02.506Z,10.85
2023-04-18T14:25:31.201Z,10.87
2023-04-18T14:28:08.197Z,11.10
2023-04-18T14:30:39.838Z,11.20
2023-04-18T14:33:09.351Z,11.28
2023-04-18T14:35:37.573Z,11.23
2023-04-18T14:38:08.988Z,11.16
2023-04-18T14:40:37.670Z,11.10
2023-04-18T14:43:05.855Z,11.21
2023-04-18T14:45:35.443Z,11.26
2023-04-18T14:48:06.793Z,11.40
2023-04-18T14:50:38.625Z,11.50
2023-04-18T14:53:07.165Z,11.57
2023-04-18T14:55:37.666Z,11.77
2023-04-18T14:58:06.835Z,11.84
2023-04-18T15:00:35.022Z,11.83
2023-04-18T15:03:08.264Z,11.87
2023-04-18T15:05:45.182Z,11.93
2023-04-18T15:08:13.465Z,12.07
2023-04-18T15:10:42.644Z,12.15
2023-04-18T15:13:11.060Z,12.15
2023-04-18T15:15:40.066Z,12.18
2023-04-18T15:18:11.063Z,12.23
2023-04-18T15:20:39.695Z,12.36
2023-04-18T15:23:09.958Z,12.47
2023-04-18T15:25:38.234Z,12.49
2023-04-18T15:28:07.163Z,12.55
2023-04-18T15:30:35.287Z,12.50
2023-04-18T15:33:03.623Z,12.54
2023-04-18T15:35:33.263Z,12.64
2023-04-18T15:38:01.401Z,12.76
2023-04-18T15:40:29.666Z,12.62
2023-04-18T15:42:59.687Z,12.50
2023-04-18T15:45:32.371Z,12.11
2023-04-18T15:48:00.504Z,12.17
2023-04-18T15:50:29.220Z,12.20
2023-04-18T15:52:59.903Z,12.14
2023-04-18T15:55:30.282Z,12.04
2023-04-18T15:57:58.508Z,11.94
2023-04-18T16:00:27.125Z,11.94
2023-04-18T16:02:55.444Z,11.97
2023-04-18T16:05:23.844Z,12.05
2023-04-18T16:07:54.054Z,12.00
2023-04-18T16:10:24.130Z,11.74
2023-04-18T16:12:52.535Z,11.77
2023-04-18T16:15:21.217Z,11.93
2023-04-18T16:17:49.667Z,11.72
2023-04-18T16:20:18.088Z,11.76
2023-04-18T16:22:46.756Z,11.74
2023-04-18T16:25:15.777Z,11.82
2023-04-18T16:27:45.580Z,11.74
2023-04-18T16:30:14.586Z,11.59
2023-04-18T16:32:42.945Z,11.52
2023-04-18T16:35:11.634Z,11.52
2023-04-18T16:37:40.897Z,11.60
2023-04-18T16:40:11.413Z,11.63
2023-04-18T16:42:42.334Z,11.70
2023-04-18T16:45:13.111Z,11.67
2023-04-18T16:47:41.606Z,11.62
2023-04-18T16:50:11.066Z,11.58
2023-04-18T16:52:39.351Z,11.47
2023-04-18T16:55:08.966Z,11.44
2023-04-18T16:57:37.108Z,11.39
2023-04-18T17:00:06.880Z,11.38
2023-04-18T17:02:38.400Z,11.33
2023-04-18T17:05:08.083Z,11.30
2023-04-18T17:07:36.232Z,11.51
2023-04-18T17:10:05.425Z,11.52
2023-04-18T17:12:33.657Z,11.41
2023-04-18T17:15:01.792Z,11.18
2023-04-18T17:17:29.925Z,11.13
2023-04-18T17:20:00.352Z,10.99
2023-04-18T17:22:29.533Z,10.91
2023-04-18T17:24:57.603Z,11.07
2023-04-18T17:27:26.039Z,11.07
2023-04-18T17:29:54.414Z,10.98
2023-04-18T17:32:22.709Z,10.97
2023-04-18T17:34:51.575Z,10.92
2023-04-18T17:37:22.457Z,10.92
2023-04-18T17:39:51.017Z,10.87
2023-04-18T17:42:21.274Z,10.83
2023-04-18T17:44:50.173Z,10.91
2023-04-18T17:47:19.405Z,10.86
2023-04-18T17:49:49.176Z,10.90
2023-04-18T17:52:17.990Z,10.86
2023-04-18T17:54:47.918Z,10.83
2023-04-18T17:57:16.001Z,10.89
2023-04-18T17:59:44.113Z,10.84
2023-04-18T18:02:12.696Z,10.75
2023-04-18T18:04:41.025Z,10.73
2023-04-18T18:07:09.374Z,10.68
2023-04-18T18:09:37.546Z,10.64
2023-04-18T18:12:07.322Z,10.67
2023-04-18T18:14:35.422Z,10.70
2023-04-18T18:17:03.731Z,10.76
2023-04-18T18:19:31.838Z,10.84
2023-04-18T18:22:00.038Z,10.84
2023-04-18T18:24:28.117Z,10.83
2023-04-18T18:26:56.440Z,10.82
2023-04-18T18:29:26.156Z,10.83
2023-04-18T18:31:54.301Z,10.84
2023-04-18T18:34:24.533Z,10.87
2023-04-18T18:36:52.664Z,11.00
2023-04-18T18:39:20.887Z,11.10
2023-04-18T18:41:49.087Z,11.10
2023-04-18T18:44:17.644Z,11.08
2023-04-18T18:46:47.457Z,10.98
2023-04-18T18:49:16.136Z,10.91
2023-04-18T18:51:44.545Z,10.89
2023-04-18T18:54:13.257Z,10.88
2023-04-18T18:56:43.787Z,10.90
2023-04-18T18:59:12.197Z,10.83
2023-04-18T19:01:41.247Z,10.81
2023-04-18T19:04:11.172Z,10.88
2023-04-18T19:06:40.119Z,11.12
2023-04-18T19:09:10.340Z,10.98
2023-04-18T19:11:38.568Z,10.94
2023-04-18T19:14:06.931Z,11.07
2023-04-18T19:16:36.148Z,10.98
2023-04-18T19:19:04.554Z,10.87
2023-04-18T19:21:34.122Z,10.71
2023-04-18T19:24:02.371Z,10.66
2023-04-18T19:26:30.521Z,10.44
2023-04-18T19:28:58.640Z,10.56
2023-04-18T19:31:26.790Z,10.53
2023-04-18T19:33:55.081Z,10.56
2023-04-18T19:36:23.724Z,10.44
2023-04-18T19:38:53.264Z,10.44
2023-04-18T19:41:22.051Z,10.52
2023-04-18T19:43:50.419Z,10.50
2023-04-18T19:46:18.581Z,10.60
2023-04-18T19:48:47.112Z,10.51
2023-04-18T19:51:15.979Z,10.31
2023-04-18T19:53:44.197Z,10.22
2023-04-18T19:56:15.039Z,10.30
2023-04-18T19:58:46.896Z,10.41
2023-04-18T20:01:15.837Z,10.35
2023-04-18T20:03:44.577Z,10.17
2023-04-18T20:06:13.197Z,10.07
2023-04-18T20:08:42.843Z,10.17
2023-04-18T20:11:14.840Z,10.06
2023-04-18T20:13:43.602Z,10.04
2023-04-18T20:16:12.383Z,10.15
2023-04-18T20:18:42.247Z,10.07
2023-04-18T20:21:12.194Z,10.03
2023-04-18T20:23:42.144Z,10.02
2023-04-18T20:26:10.512Z,9.98
2023-04-18T20:28:40.082Z,9.99
2023-04-18T20:31:08.471Z,9.93
2023-04-18T20:33:38.179Z,9.91
2023-04-18T20:36:07.581Z,9.99
2023-04-18T20:38:36.965Z,10.13
2023-04-18T20:41:06.485Z,10.08
2023-04-18T20:43:37.397Z,10.09
2023-04-18T20:46:07.222Z,10.14
2023-04-18T20:48:35.448Z,10.14
2023-04-18T20:51:03.564Z,10.18
2023-04-18T20:53:32.021Z,10.13
2023-04-18T20:56:02.343Z,10.09
2023-04-18T20:58:31.152Z,10.04
2023-04-18T21:00:59.266Z,10.06
2023-04-18T21:03:28.964Z,10.03
2023-04-18T21:05:57.134Z,10.10
2023-04-18T21:08:25.386Z,10.05
2023-04-18T21:10:55.191Z,10.02
2023-04-18T21:13:23.323Z,10.01
2023-04-18T21:15:52.275Z,10.02
2023-04-18T21:18:20.435Z,10.06
2023-04-18T21:20:50.447Z,10.04
2023-04-18T21:23:18.546Z,10.07
2023-04-18T21:25:46.680Z,10.11
2023-04-18T21:28:14.783Z,10.20
2023-04-18T21:30:43.126Z,10.13
2023-04-18T21:33:11.591Z,10.13
2023-04-18T21:35:39.744Z,10.14
2023-04-18T21:38:09.185Z,10.17
2023-04-18T21:40:38.774Z,10.13
2023-04-18T21:43:06.823Z,10.17
2023-04-18T21:45:35.020Z,10.26
2023-04-18T21:48:03.164Z,10.32
2023-04-18T21:50:31.392Z,10.34
2023-04-18T21:52:59.482Z,10.29
2023-04-18T21:55:29.169Z,10.25
2023-04-18T21:57:57.252Z,10.21
2023-04-18T22:00:25.350Z,10.13
2023-04-18T22:02:53.844Z,10.15
2023-04-18T22:05:22.055Z,10.10
2023-04-18T22:07:58.086Z,10.10
2023-04-18T22:10:28.176Z,10.15
2023-04-18T22:28:30.362Z,10.03
2023-04-18T22:30:58.550Z,9.98
2023-04-18T22:33:27.007Z,9.93
2023-04-18T22:35:56.659Z,9.96
2023-04-18T22:38:26.319Z,10.01
2023-04-18T22:40:54.405Z,10.02
2023-04-18T22:43:23.974Z,10.08
2023-04-18T22:45:53.651Z,10.07
2023-04-18T22:48:21.764Z,10.08
2023-04-18T22:50:50.143Z,10.08
2023-04-18T22:53:18.472Z,10.09
2023-04-18T22:55:47.145Z,10.14
2023-04-18T22:58:15.280Z,10.02
2023-04-18T23:00:43.732Z,10.04
2023-04-18T23:03:13.480Z,10.07
2023-04-18T23:05:43.173Z,9.99
2023-04-18T23:08:11.959Z,9.97
2023-04-18T23:10:40.286Z,9.86
2023-04-18T23:13:08.392Z,9.78
2023-04-18T23:15:36.499Z,9.83
2023-04-18T23:18:04.637Z,9.85
2023-04-18T23:20:34.194Z,9.90
2023-04-18T23:23:02.500Z,9.85
2023-04-18T23:25:33.479Z,9.86
2023-04-18T23:28:01.637Z,9.87
2023-04-18T23:30:29.716Z,9.77
2023-04-18T23:32:59.270Z,9.80
2023-04-18T23:35:27.398Z,9.71
2023-04-18T23:37:57.298Z,9.75
2023-04-18T23:40:25.842Z,9.79
2023-04-18T23:42:53.984Z,9.80
2023-04-18T23:45:24.475Z,9.83
2023-04-18T23:47:53.434Z,9.70
2023-04-18T23:50:21.746Z,9.72
2023-04-18T23:52:49.986Z,9.64
2023-04-18T23:55:19.703Z,9.72
2023-04-18T23:57:47.684Z,9.71
